Terminal Aerodrome Forecast
Issued by NWS

Home | Current Version | Previous Version | Text Only | Print | Product List | Glossary On
Versions: 1 2 3 4 5 6 7 8 9 10 11 12 13 14 15 16 17 18 19 20 21 22 23 24
000
FTUS43 KLSX 272200 AAB
TAFCPS
TAF AMD
KCPS 272213Z 2722/2818 31010KT 5SM -TSRA BKN030CB OVC080
      TEMPO 2722/2723 VRB15G35KT 2SM TSRA OVC020CB
     FM280100 VRB04KT P6SM BKN250
     FM280800 VRB04KT P6SM SCT100
      TEMPO 2808/2812 4SM BR
     FM281700 15005KT P6SM SCT040=

USA.gov is the U.S. government's official web portal to all federal, state and local government web resources and services.